Time;durP1;ratioP1;P1;durP2;ratioP2;P2;SDS_P1;SDS_P2;PMS_P1;PMS_P2;Temp;Humidity;BMP_temperature;BMP_pressure;BME280_temperature;BME280_humidity;BME280_pressure;Samples;Min_cycle;Max_cycle;Signal;HPM_P1;HPM_P2
2023/06/08 00:00:41;;;;;;;;;;;;;;;;;;2216136;58;1262;-20
2023/06/08 00:03:12;;;;;;;;;;;;;;;;;;2215737;58;1690;-21
2023/06/08 00:05:46;;;;;;;;;;;;;;;;;;2216322;66;1268;-20
2023/06/08 00:08:16;;;;;;;;;;;;;;;;;;2215970;58;1445;-20
2023/06/08 00:10:46;;;;;;;;;;;;;;;;;;2215428;59;2280;-20
2023/06/08 00:13:17;;;;;;;;;;;;;;;;;;2215473;66;1935;-20
2023/06/08 00:15:47;;;;;;;;;;;;;;;;;;2215846;66;1655;-20
2023/06/08 00:18:17;;;;;;;;;;;;;;;;;;2215209;66;1998;-20
2023/06/08 00:20:48;;;;;;;;;;;;;;;;;;2215497;66;1206;-20
2023/06/08 00:23:21;;;;;;;;;;;;;;;;;;2212583;66;1378;-20
2023/06/08 00:25:52;;;;;;;;;;;;;;;;;;2216030;58;1684;-20
2023/06/08 00:28:23;;;;;;;;;;;;;;;;;;2215746;66;1584;-20
2023/06/08 00:30:53;;;;;;;;;;;;;;;;;;2215985;58;1301;-20
2023/06/08 00:33:24;;;;;;;;;;;;;;;;;;2212559;66;1992;-20
2023/06/08 00:35:54;;;;;;;;;;;;;;;;;;2212893;66;1379;-20
2023/06/08 00:38:25;;;;;;;;;;;;;;;;;;2215771;66;1610;-20
2023/06/08 00:40:55;;;;;;;;;;;;;;;;;;2212572;59;2293;-20
2023/06/08 00:43:25;;;;;;;;;;;;;;;;;;2216324;66;1792;-20
2023/06/08 00:45:56;;;;;;;;;;;;;;;;;;2213046;59;2249;-20
2023/06/08 00:48:26;;;;;;;;;;;;;;;;;;2215667;58;2099;-20
2023/06/08 00:50:58;;;;;;;;;;;;;;;;;;2215948;58;1381;-20
2023/06/08 00:53:29;;;;;;;;;;;;;;;;;;2215853;66;1953;-20
2023/06/08 00:56:00;;;;;;;;;;;;;;;;;;2215749;66;1123;-20
2023/06/08 00:58:30;;;;;;;;;;;;;;;;;;2216089;59;1933;-20
2023/06/08 01:01:01;;;;;;;;;;;;;;;;;;2211973;59;1442;-20
2023/06/08 01:03:38;;;;;;;;;;;;;;;;;;2215137;66;1157;-20
2023/06/08 01:06:12;;;;;;;;;;;;;;;;;;2215507;66;1785;-20
2023/06/08 01:08:52;;;;;;;;;;;;;;;;;;2209531;66;1854;-20
2023/06/08 01:11:38;;;;;;;;;;;;;;;;;;2214864;66;1718;-20
2023/06/08 01:14:17;;;;;;;;;;;;;;;;;;2215534;66;2003;-20
2023/06/08 01:16:50;;;;;;;;;;;;;;;;;;2215771;66;1552;-20
2023/06/08 01:19:28;;;;;;;;;;;;;;;;;;2215268;66;1231;-20
2023/06/08 01:22:04;;;;;;;;;;;;;;;;;;2215044;59;1110;-20
2023/06/08 01:24:36;;;;;;;;;;;;;;;;;;2215315;66;2732;-20
2023/06/08 01:27:07;;;;;;;;;;;;;;;;;;2215578;58;1190;-20
2023/06/08 01:29:40;;;;;;;;;;;;;;;;;;2214916;66;1220;-20
2023/06/08 01:32:10;;;;;;;;;;;;;;;;;;2215367;58;1940;-20
2023/06/08 01:34:41;;;;;;;;;;;;;;;;;;2215049;66;1123;-20
2023/06/08 01:37:11;;;;;;;;;;;;;;;;;;2215815;59;1684;-20
2023/06/08 01:39:55;;;;;;;;;;;;;;;;;;2215323;59;1197;-21
2023/06/08 01:42:26;;;;;;;;;;;;;;;;;;2215509;66;1369;-20
2023/06/08 01:44:58;;;;;;;;;;;;;;;;;;2215322;66;1854;-20
2023/06/08 01:47:35;;;;;;;;;;;;;;;;;;2214836;58;2215;-20
2023/06/08 01:50:05;;;;;;;;;;;;;;;;;;2212847;59;1411;-20
2023/06/08 01:52:38;;;;;;;;;;;;;;;;;;2215424;58;1935;-20
2023/06/08 01:55:18;;;;;;;;;;;;;;;;;;2210031;66;1682;-21
2023/06/08 01:57:49;;;;;;;;;;;;;;;;;;2215141;59;2032;-21
2023/06/08 02:00:20;;;;;;;;;;;;;;;;;;2215308;59;1303;-20
2023/06/08 02:02:53;;;;;;;;;;;;;;;;;;2215439;58;1417;-20
2023/06/08 02:05:23;;;;;;;;;;;;;;;;;;2215112;66;1304;-20
2023/06/08 02:07:53;;;;;;;;;;;;;;;;;;2215528;66;1273;-20
2023/06/08 02:10:24;;;;;;;;;;;;;;;;;;2215276;66;1828;-20
2023/06/08 02:12:57;;;;;;;;;;;;;;;;;;2215410;66;1928;-20
2023/06/08 02:15:28;;;;;;;;;;;;;;;;;;2215071;66;1690;-20
2023/06/08 02:17:58;;;;;;;;;;;;;;;;;;2215165;66;1793;-20
2023/06/08 02:20:33;;;;;;;;;;;;;;;;;;2214984;66;1926;-20
2023/06/08 02:23:03;;;;;;;;;;;;;;;;;;2215159;66;1153;-20
2023/06/08 02:25:33;;;;;;;;;;;;;;;;;;2215413;66;1329;-20
2023/06/08 02:28:04;;;;;;;;;;;;;;;;;;2212094;66;1668;-20
2023/06/08 02:30:34;;;;;;;;;;;;;;;;;;2215284;58;1497;-20
2023/06/08 02:33:06;;;;;;;;;;;;;;;;;;2212263;66;2006;-20
2023/06/08 02:35:36;;;;;;;;;;;;;;;;;;2215688;58;1997;-20
2023/06/08 02:38:07;;;;;;;;;;;;;;;;;;2214754;66;1201;-20
2023/06/08 02:40:37;;;;;;;;;;;;;;;;;;2215371;59;1695;-20
2023/06/08 02:43:08;;;;;;;;;;;;;;;;;;2215608;66;1312;-20
2023/06/08 02:45:39;;;;;;;;;;;;;;;;;;2211953;66;1677;-20
2023/06/08 02:48:09;;;;;;;;;;;;;;;;;;2216088;58;2151;-20
2023/06/08 02:50:39;;;;;;;;;;;;;;;;;;2210249;59;1674;-20
2023/06/08 02:53:13;;;;;;;;;;;;;;;;;;2215774;58;1991;-20
2023/06/08 02:55:44;;;;;;;;;;;;;;;;;;2216204;59;2132;-20
2023/06/08 02:58:17;;;;;;;;;;;;;;;;;;2215367;59;2092;-20
2023/06/08 03:00:48;;;;;;;;;;;;;;;;;;2212649;66;1247;-20
2023/06/08 03:03:23;;;;;;;;;;;;;;;;;;2216978;59;1558;-20
2023/06/08 03:05:59;;;;;;;;;;;;;;;;;;2216738;58;2538;-20
2023/06/08 03:08:30;;;;;;;;;;;;;;;;;;2213498;66;1660;-21
2023/06/08 03:11:00;;;;;;;;;;;;;;;;;;2214659;66;1294;-21
2023/06/08 03:13:31;;;;;;;;;;;;;;;;;;2217408;66;1937;-21
2023/06/08 03:16:01;;;;;;;;;;;;;;;;;;2216356;66;1258;-21
2023/06/08 03:18:35;;;;;;;;;;;;;;;;;;2213741;66;2014;-21
2023/06/08 03:21:07;;;;;;;;;;;;;;;;;;2218017;66;1396;-21
2023/06/08 03:23:38;;;;;;;;;;;;;;;;;;2215113;66;1930;-21
2023/06/08 03:26:08;;;;;;;;;;;;;;;;;;2219280;59;1395;-21
2023/06/08 03:28:39;;;;;;;;;;;;;;;;;;2214065;66;1367;-21
2023/06/08 03:31:11;;;;;;;;;;;;;;;;;;2215674;58;1696;-21
2023/06/08 03:33:41;;;;;;;;;;;;;;;;;;2215712;66;1925;-21
2023/06/08 03:36:11;;;;;;;;;;;;;;;;;;2215598;58;1276;-21
2023/06/08 03:38:41;;;;;;;;;;;;;;;;;;2215874;66;1159;-21
2023/06/08 03:41:13;;;;;;;;;;;;;;;;;;2215880;59;2116;-21
2023/06/08 03:43:43;;;;;;;;;;;;;;;;;;2215475;66;1127;-21
2023/06/08 03:46:13;;;;;;;;;;;;;;;;;;2209990;66;1213;-21
2023/06/08 03:48:43;;;;;;;;;;;;;;;;;;2215584;58;2389;-21
2023/06/08 03:51:14;;;;;;;;;;;;;;;;;;2215592;58;1689;-21
2023/06/08 03:53:46;;;;;;;;;;;;;;;;;;2215341;66;1935;-21
2023/06/08 03:56:16;;;;;;;;;;;;;;;;;;2212117;66;1584;-21
2023/06/08 03:58:46;;;;;;;;;;;;;;;;;;2215967;58;2024;-21
2023/06/08 04:01:17;;;;;;;;;;;;;;;;;;2215802;58;1644;-21
2023/06/08 04:03:48;;;;;;;;;;;;;;;;;;2215594;66;1485;-21
2023/06/08 04:06:18;;;;;;;;;;;;;;;;;;2212579;66;1701;-21
2023/06/08 04:08:48;;;;;;;;;;;;;;;;;;2216298;66;1621;-21
2023/06/08 04:11:21;;;;;;;;;;;;;;;;;;2215580;66;1900;-21
2023/06/08 04:13:52;;;;;;;;;;;;;;;;;;2215786;66;1939;-20
2023/06/08 04:16:22;;;;;;;;;;;;;;;;;;2215937;66;1343;-20
2023/06/08 04:18:53;;;;;;;;;;;;;;;;;;2212708;66;1677;-20
2023/06/08 04:21:25;;;;;;;;;;;;;;;;;;2216497;58;2081;-20
2023/06/08 04:23:55;;;;;;;;;;;;;;;;;;2216146;58;1502;-20
2023/06/08 04:26:25;;;;;;;;;;;;;;;;;;2213519;66;1690;-20
2023/06/08 04:28:56;;;;;;;;;;;;;;;;;;2215907;58;1991;-20
2023/06/08 04:31:26;;;;;;;;;;;;;;;;;;2216175;58;2242;-20
2023/06/08 04:33:56;;;;;;;;;;;;;;;;;;2215531;66;1927;-20
2023/06/08 04:36:26;;;;;;;;;;;;;;;;;;2216616;58;1269;-21
2023/06/08 04:38:57;;;;;;;;;;;;;;;;;;2216109;66;2006;-21
2023/06/08 04:41:29;;;;;;;;;;;;;;;;;;2215935;59;1197;-21
2023/06/08 04:44:01;;;;;;;;;;;;;;;;;;2215944;66;1325;-21
2023/06/08 04:46:33;;;;;;;;;;;;;;;;;;2212027;59;2140;-21
2023/06/08 04:49:03;;;;;;;;;;;;;;;;;;2215960;58;2391;-21
2023/06/08 04:51:39;;;;;;;;;;;;;;;;;;2212564;58;1405;-21
2023/06/08 04:54:13;;;;;;;;;;;;;;;;;;2216282;66;1988;-21
2023/06/08 04:56:43;;;;;;;;;;;;;;;;;;2215697;58;1307;-21
2023/06/08 04:59:13;;;;;;;;;;;;;;;;;;2215904;59;2139;-21
2023/06/08 05:01:44;;;;;;;;;;;;;;;;;;2216374;58;1321;-21
2023/06/08 05:04:14;;;;;;;;;;;;;;;;;;2211992;66;1214;-21
2023/06/08 05:06:47;;;;;;;;;;;;;;;;;;2215447;59;1514;-21
2023/06/08 05:09:18;;;;;;;;;;;;;;;;;;2216044;66;1664;-21
2023/06/08 05:11:48;;;;;;;;;;;;;;;;;;2215450;66;1122;-21
2023/06/08 05:14:18;;;;;;;;;;;;;;;;;;2216167;66;1950;-21
2023/06/08 05:16:48;;;;;;;;;;;;;;;;;;2215828;66;1640;-21
2023/06/08 05:19:18;;;;;;;;;;;;;;;;;;2212185;66;1261;-21
2023/06/08 05:21:52;;;;;;;;;;;;;;;;;;2215637;58;1612;-21
2023/06/08 05:24:25;;;;;;;;;;;;;;;;;;2212649;66;1754;-21
2023/06/08 05:26:55;;;;;;;;;;;;;;;;;;2215660;66;1143;-21
2023/06/08 05:29:25;;;;;;;;;;;;;;;;;;2215750;66;1333;-21
2023/06/08 05:31:55;;;;;;;;;;;;;;;;;;2215780;58;1707;-21
2023/06/08 05:34:26;;;;;;;;;;;;;;;;;;2215745;66;1990;-21
2023/06/08 05:36:56;;;;;;;;;;;;;;;;;;2216046;58;1284;-21
2023/06/08 05:39:26;;;;;;;;;;;;;;;;;;2216188;58;1592;-21
2023/06/08 05:41:57;;;;;;;;;;;;;;;;;;2215897;66;1254;-21
2023/06/08 05:44:27;;;;;;;;;;;;;;;;;;2216328;66;1520;-21
2023/06/08 05:46:57;;;;;;;;;;;;;;;;;;2216431;58;2458;-20
2023/06/08 05:49:28;;;;;;;;;;;;;;;;;;2213456;58;1344;-20
2023/06/08 05:51:58;;;;;;;;;;;;;;;;;;2215848;58;2183;-20
2023/06/08 05:54:28;;;;;;;;;;;;;;;;;;2212752;59;1936;-20
2023/06/08 05:56:58;;;;;;;;;;;;;;;;;;2216904;58;1411;-20
2023/06/08 05:59:29;;;;;;;;;;;;;;;;;;2215942;59;2079;-20
2023/06/08 06:01:59;;;;;;;;;;;;;;;;;;2215161;66;1694;-20
2023/06/08 06:04:29;;;;;;;;;;;;;;;;;;2212394;59;1156;-20
2023/06/08 06:07:00;;;;;;;;;;;;;;;;;;2216067;66;2107;-20
2023/06/08 06:09:30;;;;;;;;;;;;;;;;;;2215603;66;2518;-20
2023/06/08 06:12:01;;;;;;;;;;;;;;;;;;2215701;66;1727;-20
2023/06/08 06:14:37;;;;;;;;;;;;;;;;;;2213330;66;2030;-20
2023/06/08 06:17:07;;;;;;;;;;;;;;;;;;2216463;66;1474;-20
2023/06/08 06:19:38;;;;;;;;;;;;;;;;;;2217134;66;1262;-20
2023/06/08 06:22:09;;;;;;;;;;;;;;;;;;2216911;58;2069;-20
2023/06/08 06:24:39;;;;;;;;;;;;;;;;;;2217234;66;1602;-20
2023/06/08 06:27:11;;;;;;;;;;;;;;;;;;2213368;66;1586;-20
2023/06/08 06:29:41;;;;;;;;;;;;;;;;;;2212397;59;2259;-20
2023/06/08 06:32:11;;;;;;;;;;;;;;;;;;2216659;58;1590;-21
2023/06/08 06:34:42;;;;;;;;;;;;;;;;;;2217369;66;2079;-21
2023/06/08 06:37:12;;;;;;;;;;;;;;;;;;2216774;58;1580;-22
2023/06/08 06:39:42;;;;;;;;;;;;;;;;;;2218518;59;1236;-21
2023/06/08 06:42:15;;;;;;;;;;;;;;;;;;2219070;66;1178;-22
2023/06/08 06:44:45;;;;;;;;;;;;;;;;;;2217221;59;2128;-21
2023/06/08 06:47:15;;;;;;;;;;;;;;;;;;2216510;59;2111;-22
2023/06/08 06:49:45;;;;;;;;;;;;;;;;;;2211769;59;1304;-21
2023/06/08 06:52:16;;;;;;;;;;;;;;;;;;2213062;59;2498;-21
2023/06/08 06:54:46;;;;;;;;;;;;;;;;;;2217408;66;1446;-20
2023/06/08 06:57:16;;;;;;;;;;;;;;;;;;2210844;59;1829;-20
2023/06/08 06:59:48;;;;;;;;;;;;;;;;;;2216398;58;2359;-20
2023/06/08 07:02:18;;;;;;;;;;;;;;;;;;2214569;59;1497;-21
2023/06/08 07:04:52;;;;;;;;;;;;;;;;;;2214974;66;1234;-21
2023/06/08 07:07:23;;;;;;;;;;;;;;;;;;2219081;66;1663;-20
2023/06/08 07:09:53;;;;;;;;;;;;;;;;;;2211867;59;2438;-22
2023/06/08 07:12:23;;;;;;;;;;;;;;;;;;2219895;66;1929;-22
2023/06/08 07:14:53;;;;;;;;;;;;;;;;;;2218851;59;1938;-22
2023/06/08 07:17:24;;;;;;;;;;;;;;;;;;2218741;66;1473;-22
2023/06/08 07:19:54;;;;;;;;;;;;;;;;;;2213563;66;1748;-22
2023/06/08 07:22:24;;;;;;;;;;;;;;;;;;2219497;59;1501;-21
2023/06/08 07:24:55;;;;;;;;;;;;;;;;;;2217932;59;2038;-21
2023/06/08 07:27:25;;;;;;;;;;;;;;;;;;2216893;58;2025;-21
2023/06/08 07:29:55;;;;;;;;;;;;;;;;;;2216089;66;1489;-21
2023/06/08 07:32:29;;;;;;;;;;;;;;;;;;2215864;58;2243;-21
2023/06/08 07:34:59;;;;;;;;;;;;;;;;;;2215976;58;2216;-20
2023/06/08 07:37:30;;;;;;;;;;;;;;;;;;2216685;58;1502;-21
2023/06/08 07:40:00;;;;;;;;;;;;;;;;;;2217312;58;1615;-21
2023/06/08 07:42:30;;;;;;;;;;;;;;;;;;2216488;59;1532;-21
2023/06/08 07:45:00;;;;;;;;;;;;;;;;;;2212641;66;2446;-21
2023/06/08 07:47:32;;;;;;;;;;;;;;;;;;2213668;59;2240;-21
2023/06/08 07:50:02;;;;;;;;;;;;;;;;;;2215632;58;2005;-21
2023/06/08 07:52:32;;;;;;;;;;;;;;;;;;2211896;59;3235;-21
2023/06/08 07:55:04;;;;;;;;;;;;;;;;;;2215721;59;2385;-21
2023/06/08 07:57:36;;;;;;;;;;;;;;;;;;2212051;58;2305;-21
2023/06/08 08:00:07;;;;;;;;;;;;;;;;;;2214187;66;2099;-21
2023/06/08 08:02:37;;;;;;;;;;;;;;;;;;2208212;59;1779;-22
2023/06/08 08:05:10;;;;;;;;;;;;;;;;;;2214311;66;1998;-21
2023/06/08 08:07:41;;;;;;;;;;;;;;;;;;2214239;59;1606;-21
2023/06/08 08:10:11;;;;;;;;;;;;;;;;;;2214176;59;1373;-21
2023/06/08 08:12:42;;;;;;;;;;;;;;;;;;2215022;66;1996;-21
2023/06/08 08:15:13;;;;;;;;;;;;;;;;;;2211974;66;1596;-21
2023/06/08 08:17:43;;;;;;;;;;;;;;;;;;2215497;66;1855;-22
2023/06/08 08:20:13;;;;;;;;;;;;;;;;;;2215817;66;1628;-21
2023/06/08 08:22:43;;;;;;;;;;;;;;;;;;2212144;66;1471;-22
2023/06/08 08:25:13;;;;;;;;;;;;;;;;;;2215042;66;1666;-22
2023/06/08 08:27:44;;;;;;;;;;;;;;;;;;2211810;66;1388;-22
2023/06/08 08:30:14;;;;;;;;;;;;;;;;;;2216380;58;1632;-20
2023/06/08 08:32:44;;;;;;;;;;;;;;;;;;2213554;66;1942;-21
2023/06/08 08:35:18;;;;;;;;;;;;;;;;;;2215624;58;1977;-21
2023/06/08 08:37:48;;;;;;;;;;;;;;;;;;2216270;66;1254;-20
2023/06/08 08:40:18;;;;;;;;;;;;;;;;;;2215410;66;2058;-21
2023/06/08 08:42:53;;;;;;;;;;;;;;;;;;2216532;66;1263;-21
2023/06/08 08:45:27;;;;;;;;;;;;;;;;;;2215756;66;2179;-21
2023/06/08 08:48:01;;;;;;;;;;;;;;;;;;2216224;59;2154;-21
2023/06/08 08:50:33;;;;;;;;;;;;;;;;;;2216280;58;1414;-21
2023/06/08 08:53:05;;;;;;;;;;;;;;;;;;2215805;58;1995;-21
2023/06/08 08:55:36;;;;;;;;;;;;;;;;;;2216221;58;2110;-21
2023/06/08 08:58:06;;;;;;;;;;;;;;;;;;2212477;59;2077;-21
2023/06/08 09:00:37;;;;;;;;;;;;;;;;;;2216762;58;1803;-21
2023/06/08 09:03:07;;;;;;;;;;;;;;;;;;2215854;58;1695;-21
2023/06/08 09:05:38;;;;;;;;;;;;;;;;;;2215823;66;1680;-20
2023/06/08 09:08:08;;;;;;;;;;;;;;;;;;2216803;66;1708;-20
2023/06/08 09:10:38;;;;;;;;;;;;;;;;;;2211169;66;1825;-20
2023/06/08 09:13:19;;;;;;;;;;;;;;;;;;2216589;66;2066;-20
2023/06/08 09:15:49;;;;;;;;;;;;;;;;;;2214821;66;1690;-20
2023/06/08 09:18:19;;;;;;;;;;;;;;;;;;2214938;66;1857;-21
2023/06/08 09:20:51;;;;;;;;;;;;;;;;;;2218399;66;1314;-21
2023/06/08 09:23:24;;;;;;;;;;;;;;;;;;2218067;66;1266;-20
2023/06/08 09:25:54;;;;;;;;;;;;;;;;;;2217565;66;1597;-20
2023/06/08 09:28:25;;;;;;;;;;;;;;;;;;2211633;66;1689;-20
2023/06/08 09:31:00;;;;;;;;;;;;;;;;;;2215715;58;1273;-20
2023/06/08 09:33:33;;;;;;;;;;;;;;;;;;2215396;66;2008;-20
2023/06/08 09:36:04;;;;;;;;;;;;;;;;;;2215577;58;1721;-21
2023/06/08 09:38:35;;;;;;;;;;;;;;;;;;2216133;66;2319;-20
2023/06/08 09:41:15;;;;;;;;;;;;;;;;;;2217165;59;1511;-21
2023/06/08 09:43:47;;;;;;;;;;;;;;;;;;2214712;66;1192;-21
2023/06/08 09:46:38;;;;;;;;;;;;;;;;;;2214061;66;1663;-20
2023/06/08 09:49:08;;;;;;;;;;;;;;;;;;2216606;66;1519;-22
2023/06/08 09:51:44;;;;;;;;;;;;;;;;;;2211677;59;2050;-21
2023/06/08 09:54:18;;;;;;;;;;;;;;;;;;2211929;66;1935;-21
2023/06/08 09:56:55;;;;;;;;;;;;;;;;;;2215573;58;1387;-21
2023/06/08 09:59:38;;;;;;;;;;;;;;;;;;2215581;58;2045;-21
2023/06/08 10:02:16;;;;;;;;;;;;;;;;;;2214534;58;1887;-21
2023/06/08 10:04:49;;;;;;;;;;;;;;;;;;2215207;66;1301;-21
2023/06/08 10:07:25;;;;;;;;;;;;;;;;;;2215003;66;1871;-21
2023/06/08 10:09:59;;;;;;;;;;;;;;;;;;2215072;66;1402;-21
2023/06/08 10:12:30;;;;;;;;;;;;;;;;;;2211780;66;1940;-21
2023/06/08 10:15:00;;;;;;;;;;;;;;;;;;2211910;66;1769;-21
2023/06/08 10:17:32;;;;;;;;;;;;;;;;;;2215651;66;1247;-21
2023/06/08 10:20:03;;;;;;;;;;;;;;;;;;2215472;66;1207;-21
2023/06/08 10:22:35;;;;;;;;;;;;;;;;;;2215473;66;1608;-21
2023/06/08 10:25:07;;;;;;;;;;;;;;;;;;2215633;66;1731;-21
2023/06/08 10:27:37;;;;;;;;;;;;;;;;;;2215305;66;1249;-21
2023/06/08 10:30:07;;;;;;;;;;;;;;;;;;2215442;59;1738;-21
2023/06/08 10:32:42;;;;;;;;;;;;;;;;;;2214959;66;1947;-21
2023/06/08 10:35:12;;;;;;;;;;;;;;;;;;2215842;58;1232;-21
2023/06/08 10:37:47;;;;;;;;;;;;;;;;;;2215232;66;1405;-21
2023/06/08 10:40:18;;;;;;;;;;;;;;;;;;2214832;59;1261;-20
2023/06/08 10:42:55;;;;;;;;;;;;;;;;;;2212164;66;1251;-21
2023/06/08 10:45:35;;;;;;;;;;;;;;;;;;2215719;58;1301;-21
2023/06/08 10:48:10;;;;;;;;;;;;;;;;;;2212443;59;2067;-21
2023/06/08 10:50:44;;;;;;;;;;;;;;;;;;2213401;59;1211;-21
2023/06/08 10:53:18;;;;;;;;;;;;;;;;;;2216992;66;2140;-21
2023/06/08 10:55:49;;;;;;;;;;;;;;;;;;2217653;66;1663;-21
2023/06/08 10:58:20;;;;;;;;;;;;;;;;;;2213870;66;1713;-21
2023/06/08 11:00:52;;;;;;;;;;;;;;;;;;2212051;59;1795;-21
2023/06/08 11:03:23;;;;;;;;;;;;;;;;;;2216133;66;1474;-21
2023/06/08 11:05:54;;;;;;;;;;;;;;;;;;2215629;66;1201;-21
2023/06/08 11:08:24;;;;;;;;;;;;;;;;;;2215487;62;2218;-21
2023/06/08 11:10:54;;;;;;;;;;;;;;;;;;2215448;66;1449;-22
2023/06/08 11:13:25;;;;;;;;;;;;;;;;;;2215563;66;2098;-21
2023/06/08 11:15:56;;;;;;;;;;;;;;;;;;2216025;66;2082;-20
2023/06/08 11:18:28;;;;;;;;;;;;;;;;;;2211725;66;1950;-20
2023/06/08 11:20:59;;;;;;;;;;;;;;;;;;2215090;66;1304;-20
2023/06/08 11:23:33;;;;;;;;;;;;;;;;;;2216033;66;1232;-21
2023/06/08 11:26:04;;;;;;;;;;;;;;;;;;2215604;66;1763;-21
2023/06/08 11:28:34;;;;;;;;;;;;;;;;;;2215391;66;2090;-21
2023/06/08 11:31:09;;;;;;;;;;;;;;;;;;2215514;58;1219;-21
2023/06/08 11:33:48;;;;;;;;;;;;;;;;;;2215322;66;1994;-20
2023/06/08 11:36:18;;;;;;;;;;;;;;;;;;2215495;58;1691;-20
2023/06/08 11:38:49;;;;;;;;;;;;;;;;;;2212392;66;1227;-20
2023/06/08 11:41:22;;;;;;;;;;;;;;;;;;2213372;66;2232;-20
2023/06/08 11:43:55;;;;;;;;;;;;;;;;;;2216022;66;1464;-20
2023/06/08 11:46:26;;;;;;;;;;;;;;;;;;2215500;59;2135;-20
2023/06/08 11:49:03;;;;;;;;;;;;;;;;;;2215261;66;1540;-20
2023/06/08 11:51:33;;;;;;;;;;;;;;;;;;2216203;58;2109;-20
2023/06/08 11:54:04;;;;;;;;;;;;;;;;;;2215690;66;1995;-20
2023/06/08 11:56:35;;;;;;;;;;;;;;;;;;2215877;58;1428;-20
2023/06/08 11:59:06;;;;;;;;;;;;;;;;;;2215725;58;1919;-20
2023/06/08 12:01:37;;;;;;;;;;;;;;;;;;2215873;58;1335;-20
2023/06/08 12:04:14;;;;;;;;;;;;;;;;;;2215733;66;1651;-20
2023/06/08 12:06:44;;;;;;;;;;;;;;;;;;2212796;66;2278;-20
2023/06/08 12:09:14;;;;;;;;;;;;;;;;;;2215388;66;1780;-20
2023/06/08 12:11:44;;;;;;;;;;;;;;;;;;2214867;66;1108;-20
2023/06/08 12:14:15;;;;;;;;;;;;;;;;;;2212147;66;1941;-20
2023/06/08 12:16:45;;;;;;;;;;;;;;;;;;2216169;66;1238;-20
2023/06/08 12:19:15;;;;;;;;;;;;;;;;;;2215581;66;1973;-20
2023/06/08 12:21:46;;;;;;;;;;;;;;;;;;2213187;66;1780;-20
2023/06/08 12:24:16;;;;;;;;;;;;;;;;;;2212026;66;2518;-20
2023/06/08 12:26:46;;;;;;;;;;;;;;;;;;2212659;59;2289;-20
2023/06/08 12:29:18;;;;;;;;;;;;;;;;;;2215374;58;1704;-20
2023/06/08 12:31:48;;;;;;;;;;;;;;;;;;2212290;58;2525;-20
2023/06/08 12:34:19;;;;;;;;;;;;;;;;;;2211978;59;2005;-20
2023/06/08 12:36:49;;;;;;;;;;;;;;;;;;2216404;58;2427;-20
2023/06/08 12:39:19;;;;;;;;;;;;;;;;;;2212991;59;1552;-20
2023/06/08 12:41:50;;;;;;;;;;;;;;;;;;2215721;58;1363;-20
2023/06/08 12:44:20;;;;;;;;;;;;;;;;;;2212038;59;1652;-20
2023/06/08 12:46:51;;;;;;;;;;;;;;;;;;2217073;58;2147;-20
2023/06/08 12:49:22;;;;;;;;;;;;;;;;;;2215464;66;2013;-20
2023/06/08 12:51:53;;;;;;;;;;;;;;;;;;2215899;58;1494;-20
2023/06/08 12:54:23;;;;;;;;;;;;;;;;;;2214911;58;1939;-20
2023/06/08 12:56:54;;;;;;;;;;;;;;;;;;2212833;66;2209;-20
2023/06/08 12:59:24;;;;;;;;;;;;;;;;;;2215615;58;2140;-20
2023/06/08 13:01:54;;;;;;;;;;;;;;;;;;2214947;58;1624;-20
2023/06/08 13:04:25;;;;;;;;;;;;;;;;;;2215434;61;1580;-20
2023/06/08 13:06:56;;;;;;;;;;;;;;;;;;2215444;66;1339;-21
2023/06/08 13:09:29;;;;;;;;;;;;;;;;;;2215690;66;1806;-20
2023/06/08 13:12:00;;;;;;;;;;;;;;;;;;2212318;59;1858;-20
2023/06/08 13:14:33;;;;;;;;;;;;;;;;;;2212100;66;1934;-20
2023/06/08 13:17:04;;;;;;;;;;;;;;;;;;2211624;66;1921;-20
2023/06/08 13:19:34;;;;;;;;;;;;;;;;;;2215283;66;1692;-20
2023/06/08 13:22:05;;;;;;;;;;;;;;;;;;2212232;66;1164;-20
2023/06/08 13:24:35;;;;;;;;;;;;;;;;;;2215894;66;1363;-20
2023/06/08 13:27:06;;;;;;;;;;;;;;;;;;2215314;66;1703;-20
2023/06/08 13:29:39;;;;;;;;;;;;;;;;;;2214830;66;1280;-20
2023/06/08 13:32:09;;;;;;;;;;;;;;;;;;2215301;58;1824;-20
2023/06/08 13:34:43;;;;;;;;;;;;;;;;;;2215524;66;1932;-20
2023/06/08 13:37:13;;;;;;;;;;;;;;;;;;2214998;58;1329;-20
2023/06/08 13:39:44;;;;;;;;;;;;;;;;;;2215383;59;1733;-20
2023/06/08 13:42:14;;;;;;;;;;;;;;;;;;2215414;66;1928;-20
2023/06/08 13:44:47;;;;;;;;;;;;;;;;;;2215890;58;1658;-20
2023/06/08 13:47:17;;;;;;;;;;;;;;;;;;2215168;59;2064;-20
2023/06/08 13:49:50;;;;;;;;;;;;;;;;;;2214963;58;1278;-20
2023/06/08 13:52:20;;;;;;;;;;;;;;;;;;2212377;59;1366;-21
2023/06/08 13:54:51;;;;;;;;;;;;;;;;;;2215701;66;2000;-20
2023/06/08 13:57:21;;;;;;;;;;;;;;;;;;2215347;66;1634;-20
2023/06/08 13:59:52;;;;;;;;;;;;;;;;;;2215526;58;2121;-20
2023/06/08 14:02:22;;;;;;;;;;;;;;;;;;2208792;59;1972;-20
2023/06/08 14:04:52;;;;;;;;;;;;;;;;;;2215671;66;1384;-20
2023/06/08 14:07:22;;;;;;;;;;;;;;;;;;2215422;66;1171;-20
2023/06/08 14:09:53;;;;;;;;;;;;;;;;;;2216433;66;1539;-20
2023/06/08 14:12:24;;;;;;;;;;;;;;;;;;2215530;66;1178;-20
2023/06/08 14:14:54;;;;;;;;;;;;;;;;;;2215048;66;1951;-20
2023/06/08 14:17:25;;;;;;;;;;;;;;;;;;2211579;66;1763;-20
2023/06/08 14:19:55;;;;;;;;;;;;;;;;;;2215172;66;1677;-20
2023/06/08 14:22:26;;;;;;;;;;;;;;;;;;2214703;66;1963;-20
2023/06/08 14:24:56;;;;;;;;;;;;;;;;;;2215635;66;2188;-20
2023/06/08 14:27:26;;;;;;;;;;;;;;;;;;2215409;66;1733;-20
2023/06/08 14:29:56;;;;;;;;;;;;;;;;;;2215861;66;2038;-20
2023/06/08 14:32:29;;;;;;;;;;;;;;;;;;2215391;59;1656;-21
2023/06/08 14:35:00;;;;;;;;;;;;;;;;;;2215327;58;1948;-21
2023/06/08 14:37:30;;;;;;;;;;;;;;;;;;2212908;66;1145;-21
2023/06/08 14:40:01;;;;;;;;;;;;;;;;;;2217997;58;2227;-21
2023/06/08 14:42:31;;;;;;;;;;;;;;;;;;2217158;66;1203;-21
2023/06/08 14:45:01;;;;;;;;;;;;;;;;;;2218497;58;1492;-21
2023/06/08 14:47:34;;;;;;;;;;;;;;;;;;2218048;59;2064;-21
2023/06/08 14:50:05;;;;;;;;;;;;;;;;;;2212467;59;1789;-21
2023/06/08 14:52:35;;;;;;;;;;;;;;;;;;2214104;59;1681;-21
2023/06/08 14:55:06;;;;;;;;;;;;;;;;;;2216685;66;2003;-21
2023/06/08 14:57:36;;;;;;;;;;;;;;;;;;2216684;58;2007;-21
2023/06/08 15:00:09;;;;;;;;;;;;;;;;;;2211572;54;1865;-19
2023/06/08 15:02:43;;;;;;;;;;;;;;;;;;2200687;59;1755;-19
2023/06/08 15:05:14;;;;;;;;;;;;;;;;;;2204159;59;1224;-19
2023/06/08 15:07:46;;;;;;;;;;;;;;;;;;2201663;59;2200;-19
2023/06/08 15:10:16;;;;;;;;;;;;;;;;;;2201125;59;1779;-19
2023/06/08 15:12:46;;;;;;;;;;;;;;;;;;2202525;66;2729;-19
2023/06/08 15:15:16;;;;;;;;;;;;;;;;;;2202096;59;2001;-19
2023/06/08 15:17:46;;;;;;;;;;;;;;;;;;2202121;66;1724;-19
2023/06/08 15:20:17;;;;;;;;;;;;;;;;;;2201246;66;1754;-18
2023/06/08 15:22:47;;;;;;;;;;;;;;;;;;2201144;66;2194;-19
2023/06/08 15:25:18;;;;;;;;;;;;;;;;;;2201066;59;1682;-19
2023/06/08 15:27:52;;;;;;;;;;;;;;;;;;2201819;66;2738;-19
2023/06/08 15:30:22;;;;;;;;;;;;;;;;;;2202152;59;1750;-18
2023/06/08 15:32:52;;;;;;;;;;;;;;;;;;2201444;66;1937;-18
2023/06/08 15:35:22;;;;;;;;;;;;;;;;;;2201288;59;1875;-19
2023/06/08 15:37:53;;;;;;;;;;;;;;;;;;2202088;66;1144;-19
2023/06/08 15:40:23;;;;;;;;;;;;;;;;;;2201601;66;1316;-18
2023/06/08 15:42:53;;;;;;;;;;;;;;;;;;2202819;66;1185;-19
2023/06/08 15:45:23;;;;;;;;;;;;;;;;;;2202045;58;2344;-19
2023/06/08 15:47:54;;;;;;;;;;;;;;;;;;2202685;59;2032;-19
2023/06/08 15:50:24;;;;;;;;;;;;;;;;;;2200798;59;1744;-18
2023/06/08 15:52:54;;;;;;;;;;;;;;;;;;2200717;59;1936;-19
2023/06/08 15:55:24;;;;;;;;;;;;;;;;;;2201678;59;1403;-19
2023/06/08 15:57:55;;;;;;;;;;;;;;;;;;2200945;59;2176;-19
2023/06/08 16:00:25;;;;;;;;;;;;;;;;;;2201454;59;2045;-19
2023/06/08 16:02:55;;;;;;;;;;;;;;;;;;2200492;59;1714;-19
2023/06/08 16:05:26;;;;;;;;;;;;;;;;;;2200532;66;1652;-19
2023/06/08 16:07:56;;;;;;;;;;;;;;;;;;2200899;59;1252;-18
2023/06/08 16:10:26;;;;;;;;;;;;;;;;;;2200603;66;1318;-18
2023/06/08 16:12:56;;;;;;;;;;;;;;;;;;2200909;66;1940;-19
2023/06/08 16:15:27;;;;;;;;;;;;;;;;;;2200307;66;1801;-19
2023/06/08 16:17:57;;;;;;;;;;;;;;;;;;2200800;66;1393;-19
2023/06/08 16:20:27;;;;;;;;;;;;;;;;;;2200250;59;1457;-19
2023/06/08 16:22:57;;;;;;;;;;;;;;;;;;2200965;66;1122;-19
2023/06/08 16:25:30;;;;;;;;;;;;;;;;;;2202046;59;1708;-19
2023/06/08 16:28:00;;;;;;;;;;;;;;;;;;2200624;66;1181;-19
2023/06/08 16:30:31;;;;;;;;;;;;;;;;;;2200762;59;1689;-19
2023/06/08 16:33:01;;;;;;;;;;;;;;;;;;2200003;66;2004;-19
2023/06/08 16:35:31;;;;;;;;;;;;;;;;;;2200548;59;1268;-18
2023/06/08 16:38:01;;;;;;;;;;;;;;;;;;2201061;59;1130;-18
2023/06/08 16:40:38;;;;;;;;;;;;;;;;;;2200361;66;1274;-18
2023/06/08 16:43:09;;;;;;;;;;;;;;;;;;2200484;66;1257;-18
2023/06/08 16:45:39;;;;;;;;;;;;;;;;;;2200759;66;1674;-19
2023/06/08 16:48:10;;;;;;;;;;;;;;;;;;2200340;59;2029;-18
2023/06/08 16:50:40;;;;;;;;;;;;;;;;;;2199937;59;1679;-19
2023/06/08 16:53:11;;;;;;;;;;;;;;;;;;2200159;59;1977;-19
2023/06/08 16:55:41;;;;;;;;;;;;;;;;;;2200314;66;1286;-19
2023/06/08 16:58:11;;;;;;;;;;;;;;;;;;2200855;59;2061;-19
2023/06/08 17:00:44;;;;;;;;;;;;;;;;;;2200671;59;1473;-18
2023/06/08 17:03:14;;;;;;;;;;;;;;;;;;2200382;59;1820;-19
2023/06/08 17:05:46;;;;;;;;;;;;;;;;;;2201444;66;1678;-19
2023/06/08 17:08:16;;;;;;;;;;;;;;;;;;2200913;66;1353;-19
2023/06/08 17:10:46;;;;;;;;;;;;;;;;;;2200652;66;1344;-19
2023/06/08 17:13:16;;;;;;;;;;;;;;;;;;2199765;66;1968;-19
2023/06/08 17:15:47;;;;;;;;;;;;;;;;;;2200426;66;1318;-18
2023/06/08 17:18:17;;;;;;;;;;;;;;;;;;2201036;59;1769;-19
2023/06/08 17:20:47;;;;;;;;;;;;;;;;;;2199659;59;1267;-19
2023/06/08 17:23:17;;;;;;;;;;;;;;;;;;2200235;59;1394;-19
2023/06/08 17:25:47;;;;;;;;;;;;;;;;;;2200246;66;1518;-18
2023/06/08 17:28:18;;;;;;;;;;;;;;;;;;2200339;66;1283;-18
2023/06/08 17:30:48;;;;;;;;;;;;;;;;;;2201350;59;1694;-18